Time;durP1;ratioP1;P1;durP2;ratioP2;P2;SDS_P1;SDS_P2;PMS_P1;PMS_P2;Temp;Humidity;BMP_temperature;BMP_pressure;BME280_temperature;BME280_humidity;BME280_pressure;Samples;Min_cycle;Max_cycle;Signal;HPM_P1;HPM_P2
2023/01/13 05:17:40;;;;;;;57.28;28.87;;;;;;;0.43;100.00;100632.03;5554906;32;330690;-87
2023/01/13 05:20:44;;;;;;;59.03;30.00;;;;;;;0.38;100.00;100633.78;5544041;32;34571;-86
2023/01/13 05:27:09;;;;;;;53.58;28.00;;;;;;;0.46;100.00;100633.75;5551681;32;33839;-86
2023/01/13 05:30:11;;;;;;;48.90;25.70;;;;;;;0.41;100.00;100641.63;5557541;32;35306;-86
2023/01/13 05:33:17;;;;;;;48.50;27.45;;;;;;;0.38;100.00;100645.09;5550516;32;34269;-86
2023/01/13 05:36:20;;;;;;;45.65;25.58;;;;;;;0.37;100.00;100645.09;5544690;32;34189;-90
2023/01/13 05:39:23;;;;;;;42.72;25.30;;;;;;;0.42;100.00;100640.72;5544905;32;34270;-90
2023/01/13 05:45:51;;;;;;;39.65;23.10;;;;;;;0.39;100.00;100646.81;5545088;32;33766;-86
2023/01/13 05:48:53;;;;;;;39.28;22.17;;;;;;;0.36;100.00;100633.78;5544320;32;34823;-86
2023/01/13 05:51:56;;;;;;;38.67;22.98;;;;;;;0.37;100.00;100637.25;5544511;32;33807;-87
2023/01/13 05:54:59;;;;;;;35.83;21.83;;;;;;;0.35;100.00;100637.25;5542246;32;32852;-87
2023/01/13 05:58:01;;;;;;;39.50;23.20;;;;;;;0.33;100.00;100627.69;5544177;32;32532;-86
2023/01/13 06:01:07;;;;;;;40.00;21.83;;;;;;;0.39;100.00;100630.28;5547757;32;33864;-86
2023/01/13 06:04:10;;;;;;;39.47;21.08;;;;;;;0.51;100.00;100637.22;5555637;32;33076;-87
2023/01/13 06:07:12;;;;;;;34.35;21.58;;;;;;;0.64;100.00;100638.91;5551552;32;33986;-87
2023/01/13 06:10:16;;;;;;;37.85;22.10;;;;;;;0.86;100.00;100641.41;5545882;32;32850;-88
2023/01/13 06:13:19;;;;;;;31.85;20.33;;;;;;;0.76;100.00;100651.03;5546372;32;34029;-88
2023/01/13 06:16:22;;;;;;;34.92;20.48;;;;;;;0.73;100.00;100643.22;5547195;32;33592;-88
2023/01/13 06:19:25;;;;;;;35.10;21.00;;;;;;;0.69;100.00;100641.47;5553679;32;34015;-88
2023/01/13 06:22:31;;;;;;;33.47;19.80;;;;;;;0.74;100.00;100641.44;5553736;32;36064;-88
2023/01/13 06:25:45;;;;;;;35.30;19.52;;;;;;;0.65;100.00;100642.38;5546328;32;34744;-88
2023/01/13 06:28:48;;;;;;;34.22;19.92;;;;;;;0.70;100.00;100645.81;5531966;32;34285;-87
2023/01/13 06:31:51;;;;;;;38.92;20.52;;;;;;;0.60;100.00;100642.38;5520837;32;34340;-87
2023/01/13 06:34:59;;;;;;;37.75;20.58;;;;;;;0.61;100.00;100638.91;5529889;32;32628;-87
2023/01/13 06:38:08;;;;;;;32.65;20.73;;;;;;;0.63;100.00;100650.22;5527019;32;34184;-87
2023/01/13 06:41:11;;;;;;;34.95;22.10;;;;;;;0.78;100.00;100648.41;5524291;32;33986;-87
2023/01/13 06:44:14;;;;;;;41.88;23.23;;;;;;;0.67;100.00;100648.47;5514282;32;34515;-87
2023/01/13 06:47:17;;;;;;;43.55;24.33;;;;;;;0.63;100.00;100651.97;5517695;32;33761;-88
2023/01/13 06:50:21;;;;;;;43.58;23.90;;;;;;;0.59;100.00;100663.28;5515759;32;34258;-87
2023/01/13 06:53:24;;;;;;;40.53;23.48;;;;;;;0.57;100.00;100662.41;5518960;32;34176;-87
2023/01/13 06:56:26;;;;;;;37.38;23.33;;;;;;;0.66;100.00;100665.00;5528278;32;35028;-87
2023/01/13 06:59:29;;;;;;;42.20;23.90;;;;;;;0.70;100.00;100666.72;5530094;32;34335;-87
2023/01/13 07:02:32;;;;;;;40.03;23.15;;;;;;;0.73;100.00;100669.34;5523261;32;34968;-88
2023/01/13 07:05:36;;;;;;;38.97;23.30;;;;;;;0.75;100.00;100675.41;5522894;32;33052;-87
2023/01/13 07:08:38;;;;;;;41.58;23.85;;;;;;;0.76;100.00;100671.06;5531431;32;32658;-87
2023/01/13 07:11:41;;;;;;;38.13;22.30;;;;;;;0.76;100.00;100665.84;5538863;32;32251;-88
2023/01/13 07:18:06;;;;;;;41.25;21.77;;;;;;;0.79;100.00;100673.66;5530851;32;35212;-90
2023/01/13 07:21:22;;;;;;;41.15;23.62;;;;;;;0.77;100.00;100670.19;5550487;26;33829;-88
2023/01/13 07:24:26;;;;;;;38.75;23.50;;;;;;;0.78;100.00;100669.31;5499229;32;34183;-88
2023/01/13 07:27:28;;;;;;;38.35;22.40;;;;;;;0.85;100.00;100664.94;5508737;32;34034;-88
2023/01/13 07:30:37;;;;;;;37.10;22.40;;;;;;;0.91;100.00;100667.50;5503887;32;32836;-88
2023/01/13 07:33:40;;;;;;;40.42;23.15;;;;;;;0.99;100.00;100667.44;5501706;32;34009;-88
2023/01/13 07:40:15;;;;;;;36.30;21.20;;;;;;;1.22;100.00;100672.56;5559433;32;33293;-88
2023/01/13 07:43:31;;;;;;;38.17;21.35;;;;;;;1.40;100.00;100662.88;5561640;32;33563;-88
2023/01/13 07:54:04;;;;;;;35.35;18.70;;;;;;;2.01;100.00;100674.56;3926522;29;20093;-87
2023/01/13 07:57:07;;;;;;;35.10;20.12;;;;;;;2.22;100.00;100672.59;5567048;32;31868;-86
2023/01/13 08:00:10;;;;;;;35.78;18.95;;;;;;;2.45;100.00;100673.25;5552967;32;33093;-87
2023/01/13 08:03:14;;;;;;;33.50;19.17;;;;;;;2.35;100.00;100667.22;5552334;32;34035;-89
2023/01/13 08:06:17;;;;;;;31.10;18.77;;;;;;;2.38;100.00;100680.31;5554231;32;33887;-89
2023/01/13 08:09:20;;;;;;;34.17;18.80;;;;;;;2.42;100.00;100688.09;5556281;32;34470;-87
2023/01/13 08:16:07;;;;;;;33.53;19.12;;;;;;;2.37;100.00;100695.13;5549220;32;33876;-86
2023/01/13 08:19:10;;;;;;;30.75;18.02;;;;;;;2.20;100.00;100707.56;5550338;32;33884;-86
2023/01/13 08:22:13;;;;;;;27.05;18.25;;;;;;;2.00;100.00;100704.22;5547676;32;33599;-86
2023/01/13 08:25:16;;;;;;;30.17;17.48;;;;;;;1.98;100.00;100697.28;5552377;32;33867;-85
2023/01/13 08:28:19;;;;;;;35.17;17.92;;;;;;;1.90;100.00;100699.94;5565073;32;33969;-86
2023/01/13 08:31:22;;;;;;;28.73;18.58;;;;;;;1.85;100.00;100699.13;5558195;32;31262;-86
2023/01/13 08:34:25;;;;;;;29.80;17.15;;;;;;;1.95;100.00;100705.13;5561981;32;33779;-86
2023/01/13 08:37:27;;;;;;;30.42;17.23;;;;;;;1.98;100.00;100712.97;5557659;32;34176;-86
2023/01/13 08:40:31;;;;;;;29.05;17.02;;;;;;;1.92;100.00;100708.69;5556193;32;33801;-86
2023/01/13 08:43:34;;;;;;;27.30;18.12;;;;;;;2.03;100.00;100700.72;5552972;32;34059;-87
2023/01/13 08:46:37;;;;;;;28.02;16.73;;;;;;;2.07;100.00;100702.44;5562589;32;33729;-87
2023/01/13 08:49:40;;;;;;;28.12;16.48;;;;;;;2.11;100.00;100711.13;5555955;32;34056;-86
2023/01/13 08:52:44;;;;;;;23.33;14.75;;;;;;;2.24;100.00;100711.84;5549873;32;34553;-87
2023/01/13 08:55:46;;;;;;;22.00;14.18;;;;;;;2.24;100.00;100709.25;5555501;32;33320;-86
2023/01/13 08:58:50;;;;;;;23.77;14.18;;;;;;;2.34;100.00;100721.37;5557843;32;34650;-86
2023/01/13 09:01:52;;;;;;;23.40;13.95;;;;;;;2.23;100.00;100717.97;5563206;32;34428;-87
2023/01/13 09:04:55;;;;;;;20.12;13.35;;;;;;;2.20;100.00;100720.66;5563825;32;34591;-87
2023/01/13 09:07:58;;;;;;;24.33;14.63;;;;;;;2.15;100.00;100708.47;5551404;32;32041;-87
2023/01/13 09:13:10;;;;;;;21.50;14.23;;;;;;;2.20;100.00;100718.87;5557023;32;33942;-87
2023/01/13 09:14:26;;;;;;;22.58;14.57;;;;;;;2.26;100.00;100718.81;5557501;32;32260;-87
2023/01/13 09:17:29;;;;;;;22.00;13.98;;;;;;;2.12;100.00;100716.31;5553412;32;34295;-90
2023/01/13 09:20:34;;;;;;;23.52;14.95;;;;;;;2.23;100.00;100711.00;5564313;32;33879;-88
2023/01/13 09:23:37;;;;;;;25.08;15.05;;;;;;;2.26;100.00;100720.59;5570503;32;34132;-87
2023/01/13 09:26:39;;;;;;;25.10;15.45;;;;;;;2.05;100.00;100713.81;5560149;32;34688;-86
2023/01/13 09:29:43;;;;;;;24.55;15.88;;;;;;;2.01;100.00;100708.56;5547212;32;33159;-86
2023/01/13 09:32:46;;;;;;;23.70;15.35;;;;;;;2.11;100.00;100717.22;5546522;32;34065;-86
2023/01/13 09:35:48;;;;;;;25.30;16.15;;;;;;;2.12;100.00;100715.47;5552847;32;33674;-85
2023/01/13 09:38:51;;;;;;;29.08;16.98;;;;;;;2.00;100.00;100717.31;5548370;32;34355;-87
2023/01/13 09:45:29;;;;;;;28.92;17.23;;;;;;;2.14;100.00;100713.69;5555333;32;33868;-90
2023/01/13 09:48:50;;;;;;;28.00;17.08;;;;;;;2.23;100.00;100708.41;5551815;32;32315;-87
2023/01/13 09:52:01;;;;;;;29.37;17.58;;;;;;;2.45;100.00;100704.69;5557511;32;32705;-87
2023/01/13 09:55:10;;;;;;;32.30;18.52;;;;;;;2.41;100.00;100704.69;5573006;32;35130;-87
2023/01/13 09:58:17;;;;;;;28.33;17.02;;;;;;;2.44;100.00;100709.03;5553194;32;33823;-87
2023/01/13 10:01:30;;;;;;;30.40;17.50;;;;;;;2.40;100.00;100707.34;5555526;32;34016;-86
2023/01/13 10:04:33;;;;;;;27.37;17.00;;;;;;;2.39;100.00;100703.88;5553718;32;33918;-87
2023/01/13 10:07:42;;;;;;;25.60;16.55;;;;;;;2.34;100.00;100708.28;5562184;32;34883;-86
2023/01/13 10:10:49;;;;;;;26.95;17.00;;;;;;;2.53;100.00;100702.84;5551087;32;33877;-87
2023/01/13 10:13:57;;;;;;;28.48;17.90;;;;;;;2.40;100.00;100705.59;5549248;32;33631;-87
2023/01/13 10:17:17;;;;;;;29.48;17.40;;;;;;;2.14;100.00;100693.63;5554515;32;34817;-87
2023/01/13 10:20:23;;;;;;;30.00;17.70;;;;;;;2.39;100.00;100700.38;5559446;32;33851;-92
2023/01/13 10:23:50;;;;;;;29.67;17.37;;;;;;;2.45;100.00;100702.06;5551128;32;32792;-93
2023/01/13 10:27:11;;;;;;;30.58;17.40;;;;;;;2.47;100.00;100703.75;5612951;26;34277;-91
2023/01/13 10:30:16;;;;;;;34.15;17.25;;;;;;;2.62;100.00;100691.41;5552383;32;35295;-88
2023/01/13 10:33:24;;;;;;;28.05;17.58;;;;;;;2.63;100.00;100701.87;5533818;32;34563;-86
2023/01/13 10:36:29;;;;;;;33.50;17.33;;;;;;;2.72;100.00;100687.78;5525770;32;33415;-87
2023/01/13 10:40:00;;;;;;;28.98;17.08;;;;;;;2.73;100.00;100692.16;5530010;32;34563;-87
2023/01/13 10:43:07;;;;;;;34.05;17.98;;;;;;;3.19;100.00;100689.78;5529276;32;33589;-87
2023/01/13 10:46:11;;;;;;;30.45;17.52;;;;;;;3.06;100.00;100676.84;5532467;32;34247;-87
2023/01/13 10:49:25;;;;;;;38.33;18.27;;;;;;;3.31;100.00;100678.25;5534126;32;33991;-87
2023/01/13 10:52:32;;;;;;;33.97;18.92;;;;;;;3.01;100.00;100676.03;5534489;32;35046;-89
2023/01/13 10:55:36;;;;;;;36.55;18.73;;;;;;;2.71;100.00;100672.09;5530179;32;34182;-87
2023/01/13 10:58:39;;;;;;;32.17;18.42;;;;;;;2.61;100.00;100669.56;5543128;32;34909;-88
2023/01/13 11:01:59;;;;;;;39.63;19.35;;;;;;;2.47;100.00;100656.63;5536323;32;34559;-88
2023/01/13 11:05:24;;;;;;;;;;;;;;;2.34;100.00;100653.28;5539864;32;33942;-88
2023/01/13 11:08:30;;;;;;;34.45;18.27;;;;;;;2.45;100.00;100647.06;5534925;32;34876;-89
2023/01/13 11:11:42;;;;;;;35.42;18.98;;;;;;;2.47;100.00;100645.31;5547018;32;33881;-88
2023/01/13 11:14:46;;;;;;;34.78;19.00;;;;;;;2.36;100.00;100642.81;5539701;32;34443;-87
2023/01/13 11:18:00;;;;;;;34.65;19.92;;;;;;;2.19;100.00;100642.97;5526160;32;33125;-87
2023/01/13 11:21:08;;;;;;;37.08;18.73;;;;;;;2.13;100.00;100636.06;5552002;32;34455;-87
2023/01/13 11:24:19;;;;;;;33.78;20.10;;;;;;;2.09;100.00;100632.63;5533712;32;32673;-88
2023/01/13 11:27:25;;;;;;;;;;;;;;;2.10;100.00;100623.87;5537977;32;34236;-88
2023/01/13 11:30:41;;;;;;;36.47;19.25;;;;;;;2.06;100.00;100624.78;5531507;32;35466;-88
2023/01/13 11:33:55;;;;;;;39.45;19.98;;;;;;;1.94;100.00;100619.69;5531668;32;33016;-89
2023/01/13 11:37:02;;;;;;;38.42;20.70;;;;;;;2.00;100.00;100623.09;5546123;32;34332;-89
2023/01/13 11:40:22;;;;;;;32.75;20.00;;;;;;;2.13;100.00;100621.25;5539769;32;34482;-86
2023/01/13 11:43:32;;;;;;;35.28;18.85;;;;;;;2.18;100.00;100622.94;5534874;32;34099;-88
2023/01/13 11:46:36;;;;;;;44.30;20.65;;;;;;;2.26;100.00;100621.97;5539211;32;34132;-86
2023/01/13 11:49:38;;;;;;;35.50;19.15;;;;;;;2.21;100.00;100609.81;5533704;32;33830;-86
2023/01/13 11:53:08;;;;;;;35.53;18.42;;;;;;;2.30;100.00;100607.06;5544915;32;34514;-86
2023/01/13 11:56:27;;;;;;;37.92;19.87;;;;;;;2.37;100.00;100595.63;5546422;32;34190;-87
2023/01/13 11:59:55;;;;;;;35.35;18.50;;;;;;;2.37;100.00;100584.31;5535476;32;32836;-87
2023/01/13 12:03:36;;;;;;;38.72;19.98;;;;;;;2.15;100.00;100564.50;5563705;32;35226;-86
2023/01/13 12:06:40;;;;;;;45.38;19.90;;;;;;;2.15;100.00;100567.13;5550083;32;35320;-89
2023/01/13 12:09:50;;;;;;;41.85;20.48;;;;;;;2.28;100.00;100561.72;5532031;32;33862;-87
2023/01/13 12:13:34;;;;;;;39.20;20.35;;;;;;;2.29;100.00;100560.84;5523534;32;34218;-87
2023/01/13 12:16:47;;;;;;;46.42;21.20;;;;;;;2.30;100.00;100557.34;5521970;32;32629;-86
2023/01/13 12:19:50;;;;;;;40.58;21.35;;;;;;;2.35;100.00;100547.69;5546456;32;35078;-87
2023/01/13 12:22:57;;;;;;;39.05;21.08;;;;;;;2.34;100.00;100547.69;5551129;32;35377;-90
2023/01/13 12:26:06;;;;;;;42.00;21.35;;;;;;;2.29;100.00;100539.91;5532952;32;34123;-92
2023/01/13 12:29:13;;;;;;;40.20;21.12;;;;;;;2.28;100.00;100541.63;5522155;32;32941;-90
2023/01/13 12:32:23;;;;;;;41.97;21.33;;;;;;;2.37;100.00;100540.66;5548277;32;34115;-89
2023/01/13 12:36:01;;;;;;;37.92;20.27;;;;;;;2.42;100.00;100545.84;5539216;32;34233;-88
2023/01/13 12:39:42;;;;;;;44.70;23.33;;;;;;;2.49;100.00;100557.09;5505313;32;33249;-87
2023/01/13 12:46:22;;;;;;;45.00;21.33;;;;;;;2.38;100.00;100546.78;5500527;32;32551;-89
2023/01/13 12:49:32;;;;;;;44.83;21.80;;;;;;;2.46;100.00;100542.28;5517954;32;33937;-85
2023/01/13 12:52:43;;;;;;;43.45;21.95;;;;;;;2.50;100.00;100545.72;5515460;32;34238;-88
2023/01/13 12:55:51;;;;;;;41.70;21.80;;;;;;;2.55;100.00;100549.16;5499568;32;35228;-91
2023/01/13 12:59:20;;;;;;;41.88;21.90;;;;;;;2.55;100.00;100544.81;5526758;32;33775;-90
2023/01/13 13:02:28;;;;;;;45.50;23.20;;;;;;;2.63;100.00;100547.31;5514232;32;34232;-87
2023/01/13 13:09:13;;;;;;;46.90;22.67;;;;;;;2.64;100.00;100549.03;5514432;32;33905;-87
2023/01/13 13:15:50;;;;;;;44.75;23.12;;;;;;;2.50;100.00;100558.81;5528466;32;33829;-88
2023/01/13 13:19:21;;;;;;;50.05;25.25;;;;;;;2.68;100.00;100561.19;5530648;32;34658;-88
2023/01/13 13:22:26;;;;;;;45.80;23.95;;;;;;;2.72;100.00;100555.94;5524051;32;34783;-88
2023/01/13 13:25:29;;;;;;;47.47;24.17;;;;;;;2.89;100.00;100558.28;5529992;32;34039;-87
2023/01/13 13:28:37;;;;;;;48.53;24.30;;;;;;;2.80;100.00;100556.66;5527114;32;33523;-88
2023/01/13 13:31:43;;;;;;;47.00;24.67;;;;;;;2.63;100.00;100565.66;5512464;32;33430;-91
2023/01/13 13:34:52;;;;;;;45.65;24.55;;;;;;;2.69;100.00;100562.06;5512961;32;33883;-86
2023/01/13 13:48:52;;;;;;;40.35;23.17;;;;;;;2.79;100.00;100545.34;5517582;32;33889;-87
2023/01/13 13:52:09;;;;;;;35.97;20.75;;;;;;;2.77;100.00;100562.81;5521345;32;33120;-88
2023/01/13 13:55:18;;;;;;;40.10;20.60;;;;;;;2.90;100.00;100565.25;5541379;32;33628;-87
2023/01/13 13:58:25;;;;;;;41.13;21.58;;;;;;;3.04;100.00;100576.41;5517004;32;34156;-88
2023/01/13 14:01:35;;;;;;;39.38;21.25;;;;;;;2.99;100.00;100579.97;5515439;32;35211;-90
2023/01/13 14:04:40;;;;;;;38.95;20.45;;;;;;;3.07;100.00;100583.38;5526482;32;34338;-87
2023/01/13 14:07:48;;;;;;;35.85;20.23;;;;;;;3.18;100.00;100580.56;5517607;32;33027;-86
2023/01/13 14:10:52;;;;;;;40.83;20.52;;;;;;;2.99;100.00;100575.63;5522355;32;34256;-86
2023/01/13 14:14:04;;;;;;;38.42;21.12;;;;;;;3.14;100.00;100582.38;5530342;32;34808;-87
2023/01/13 14:17:17;;;;;;;35.45;19.20;;;;;;;3.08;100.00;100583.31;5513099;32;34053;-87
2023/01/13 14:20:20;;;;;;;37.05;20.05;;;;;;;3.10;100.00;100583.31;5514646;32;34515;-87
2023/01/13 14:23:32;;;;;;;38.28;21.00;;;;;;;3.01;100.00;100570.38;5521965;32;32878;-87
2023/01/13 14:26:35;;;;;;;40.05;20.65;;;;;;;2.96;100.00;100562.53;5525217;32;33536;-86
2023/01/13 14:29:38;;;;;;;37.65;19.90;;;;;;;3.00;100.00;100566.88;5533042;32;33961;-85
2023/01/13 14:32:41;;;;;;;39.38;20.33;;;;;;;3.16;100.00;100564.03;5533964;32;34753;-86
2023/01/13 14:36:21;;;;;;;34.47;19.33;;;;;;;3.21;100.00;100565.66;5534750;32;34477;-86
2023/01/13 14:39:33;;;;;;;34.78;18.15;;;;;;;3.26;100.00;100562.09;5514871;32;34076;-86
2023/01/13 14:42:36;;;;;;;34.85;19.62;;;;;;;3.31;100.00;100570.75;5514616;32;34183;-86
2023/01/13 14:45:53;;;;;;;35.78;18.70;;;;;;;3.31;100.00;100562.87;5514399;32;33173;-85
2023/01/13 14:49:00;;;;;;;37.40;19.70;;;;;;;3.28;100.00;100578.66;5533730;32;33681;-86
2023/01/13 14:52:16;;;;;;;32.30;18.92;;;;;;;3.24;100.00;100583.94;5526250;32;34521;-86
2023/01/13 14:55:27;;;;;;;35.22;19.27;;;;;;;3.34;100.00;100586.44;5518172;32;32223;-90
2023/01/13 14:58:30;;;;;;;39.38;19.60;;;;;;;3.32;100.00;100589.09;5524961;32;34769;-88
2023/01/13 15:01:35;;;;;;;33.85;18.73;;;;;;;3.36;100.00;100579.41;5518545;32;34272;-86
2023/01/13 15:04:38;;;;;;;34.08;19.30;;;;;;;3.42;100.00;100575.84;5515526;32;34445;-85
2023/01/13 15:07:50;;;;;;;37.80;20.48;;;;;;;3.37;100.00;100570.66;5513660;32;33940;-86
2023/01/13 15:10:58;;;;;;;34.75;19.52;;;;;;;3.38;100.00;100567.16;5513556;32;35089;-85
2023/01/13 15:14:08;;;;;;;39.20;19.90;;;;;;;3.43;100.00;100577.56;5515953;32;33969;-85
2023/01/13 15:17:16;;;;;;;36.75;19.12;;;;;;;3.40;100.00;100561.84;5525603;32;33775;-85
2023/01/13 15:20:22;;;;;;;39.42;20.62;;;;;;;3.35;100.00;100567.19;5532619;32;33411;-86
2023/01/13 15:23:26;;;;;;;41.33;21.15;;;;;;;3.32;100.00;100568.09;5519447;32;32664;-85
2023/01/13 15:26:32;;;;;;;37.65;20.17;;;;;;;3.26;100.00;100576.06;5513288;32;32786;-85
2023/01/13 15:29:34;;;;;;;38.30;20.15;;;;;;;3.31;100.00;100573.38;5512853;32;32783;-85
2023/01/13 15:32:37;;;;;;;39.15;18.58;;;;;;;3.22;100.00;100570.00;5514064;32;34165;-85
2023/01/13 15:35:43;;;;;;;44.33;20.12;;;;;;;3.24;100.00;100567.38;5520760;32;33882;-86
2023/01/13 15:38:46;;;;;;;43.15;19.95;;;;;;;3.18;100.00;100565.69;5538110;32;34178;-86
2023/01/13 15:48:34;;;;;;;44.75;21.42;;;;;;;3.21;100.00;100573.53;5518103;32;33440;-86
2023/01/13 15:51:39;;;;;;;45.55;20.95;;;;;;;3.19;100.00;100582.31;5516400;32;34020;-86
2023/01/13 15:54:41;;;;;;;45.45;21.60;;;;;;;3.13;100.00;100585.03;5515323;32;32344;-86
2023/01/13 15:57:48;;;;;;;48.72;21.48;;;;;;;3.19;100.00;100590.16;5523344;32;33987;-86
2023/01/13 16:00:52;;;;;;;46.22;21.77;;;;;;;3.17;100.00;100587.56;5527602;32;34355;-86
2023/01/13 16:03:55;;;;;;;45.80;22.00;;;;;;;3.18;100.00;100580.56;5521580;32;33026;-86
2023/01/13 16:06:58;;;;;;;46.90;21.55;;;;;;;3.18;100.00;100584.03;5517110;32;34102;-86
2023/01/13 16:10:03;;;;;;;47.30;21.87;;;;;;;3.27;100.00;100585.66;5517502;32;34045;-89
2023/01/13 16:13:06;;;;;;;46.15;20.73;;;;;;;3.33;100.00;100590.81;5519980;32;34241;-90
2023/01/13 16:16:28;;;;;;;42.08;20.23;;;;;;;3.32;100.00;100585.59;5521838;32;33826;-90
2023/01/13 16:19:31;;;;;;;44.10;19.25;;;;;;;3.33;100.00;100592.56;5515351;32;34659;-86
2023/01/13 16:22:34;;;;;;;47.30;20.98;;;;;;;3.34;100.00;100582.06;5515643;32;33953;-86
2023/01/13 16:25:37;;;;;;;46.08;20.92;;;;;;;3.33;100.00;100588.19;5513964;32;33628;-86
2023/01/13 16:28:40;;;;;;;49.78;19.52;;;;;;;3.35;100.00;100594.28;5514458;32;34357;-86
2023/01/13 16:31:42;;;;;;;43.22;19.52;;;;;;;3.35;100.00;100594.28;5512985;32;32657;-86
